sensor_id;sensor_type;location;lat;lon;timestamp;pressure;altitude;pressure_sealevel;temperature;humidity
25638;BME280;13496;51.040;13.680;2023-05-19T00:02:59;100682.59;;;21.15;45.76
25638;BME280;13496;51.040;13.680;2023-05-19T00:08:01;100681.78;;;21.15;45.65
25638;BME280;13496;51.040;13.680;2023-05-19T00:13:04;100680.97;;;21.14;44.94
25638;BME280;13496;51.040;13.680;2023-05-19T00:18:06;100682.13;;;21.12;45.58
25638;BME280;13496;51.040;13.680;2023-05-19T00:23:09;100675.22;;;21.11;45.43
25638;BME280;13496;51.040;13.680;2023-05-19T00:28:11;100669.13;;;21.10;45.48
25638;BME280;13496;51.040;13.680;2023-05-19T00:33:13;100664.22;;;21.07;45.38
25638;BME280;13496;51.040;13.680;2023-05-19T00:38:14;100667.84;;;21.06;45.65
25638;BME280;13496;51.040;13.680;2023-05-19T00:43:16;100670.47;;;21.06;45.25
25638;BME280;13496;51.040;13.680;2023-05-19T00:48:18;100669.03;;;21.03;45.51
25638;BME280;13496;51.040;13.680;2023-05-19T00:53:20;100669.41;;;21.00;45.77
25638;BME280;13496;51.040;13.680;2023-05-19T00:58:24;100665.94;;;21.00;45.45
25638;BME280;13496;51.040;13.680;2023-05-19T01:03:31;100661.03;;;20.97;45.31
25638;BME280;13496;51.040;13.680;2023-05-19T01:08:36;100657.56;;;20.96;45.20
25638;BME280;13496;51.040;13.680;2023-05-19T01:13:46;100663.19;;;20.93;45.32
25638;BME280;13496;51.040;13.680;2023-05-19T01:19:09;100654.47;;;20.93;45.41
25638;BME280;13496;51.040;13.680;2023-05-19T01:30:21;100656.56;;;20.83;45.57
25638;BME280;13496;51.040;13.680;2023-05-19T01:35:26;100658.03;;;20.85;45.36
25638;BME280;13496;51.040;13.680;2023-05-19T01:40:29;100659.53;;;20.79;45.69
25638;BME280;13496;51.040;13.680;2023-05-19T01:45:32;100664.47;;;20.83;45.92
25638;BME280;13496;51.040;13.680;2023-05-19T01:50:34;100658.56;;;20.81;45.71
25638;BME280;13496;51.040;13.680;2023-05-19T01:55:43;100663.00;;;20.80;45.82
25638;BME280;13496;51.040;13.680;2023-05-19T02:00:53;100661.56;;;20.77;45.76
25638;BME280;13496;51.040;13.680;2023-05-19T02:06:24;100653.72;;;20.69;45.94
25638;BME280;13496;51.040;13.680;2023-05-19T02:11:41;100648.25;;;20.71;46.01
25638;BME280;13496;51.040;13.680;2023-05-19T02:16:47;100654.72;;;20.68;45.50
25638;BME280;13496;51.040;13.680;2023-05-19T02:21:49;100650.63;;;20.66;45.41
25638;BME280;13496;51.040;13.680;2023-05-19T02:26:52;100642.25;;;20.62;45.92
25638;BME280;13496;51.040;13.680;2023-05-19T02:31:54;100653.44;;;20.64;45.65
25638;BME280;13496;51.040;13.680;2023-05-19T02:36:55;100648.06;;;20.58;46.10
25638;BME280;13496;51.040;13.680;2023-05-19T02:41:58;100652.34;;;20.59;46.18
25638;BME280;13496;51.040;13.680;2023-05-19T02:46:59;100654.34;;;20.57;45.90
25638;BME280;13496;51.040;13.680;2023-05-19T02:52:02;100650.22;;;20.54;45.62
25638;BME280;13496;51.040;13.680;2023-05-19T02:57:04;100648.44;;;20.54;46.18
25638;BME280;13496;51.040;13.680;2023-05-19T03:02:05;100643.50;;;20.51;45.62
25638;BME280;13496;51.040;13.680;2023-05-19T03:07:08;100629.03;;;20.47;46.15
25638;BME280;13496;51.040;13.680;2023-05-19T03:12:10;100624.56;;;20.48;46.29
25638;BME280;13496;51.040;13.680;2023-05-19T03:17:12;100625.91;;;20.44;46.34
25638;BME280;13496;51.040;13.680;2023-05-19T03:22:14;100626.75;;;20.44;46.03
25638;BME280;13496;51.040;13.680;2023-05-19T03:27:15;100632.81;;;20.45;46.07
25638;BME280;13496;51.040;13.680;2023-05-19T03:32:18;100636.47;;;20.44;45.62
25638;BME280;13496;51.040;13.680;2023-05-19T03:37:21;100627.75;;;20.43;45.92
25638;BME280;13496;51.040;13.680;2023-05-19T03:42:22;100629.06;;;20.39;45.94
25638;BME280;13496;51.040;13.680;2023-05-19T03:47:25;100644.06;;;20.39;45.93
25638;BME280;13496;51.040;13.680;2023-05-19T03:52:40;100643.72;;;20.42;45.84
25638;BME280;13496;51.040;13.680;2023-05-19T03:57:56;100642.44;;;20.38;45.92
25638;BME280;13496;51.040;13.680;2023-05-19T04:02:58;100643.44;;;20.37;45.97
25638;BME280;13496;51.040;13.680;2023-05-19T04:08:00;100649.88;;;20.34;46.33
25638;BME280;13496;51.040;13.680;2023-05-19T04:13:02;100651.50;;;20.35;45.75
25638;BME280;13496;51.040;13.680;2023-05-19T04:18:03;100653.34;;;20.35;45.96
25638;BME280;13496;51.040;13.680;2023-05-19T04:23:05;100655.81;;;20.36;45.88
25638;BME280;13496;51.040;13.680;2023-05-19T04:28:07;100650.34;;;20.38;45.77
25638;BME280;13496;51.040;13.680;2023-05-19T04:33:09;100652.16;;;20.37;46.12
25638;BME280;13496;51.040;13.680;2023-05-19T04:38:11;100651.34;;;20.37;46.61
25638;BME280;13496;51.040;13.680;2023-05-19T04:43:13;100638.78;;;20.39;46.21
25638;BME280;13496;51.040;13.680;2023-05-19T04:48:17;100646.34;;;20.42;46.02
25638;BME280;13496;51.040;13.680;2023-05-19T04:53:18;100640.47;;;20.40;45.82
25638;BME280;13496;51.040;13.680;2023-05-19T04:58:22;100643.09;;;20.40;45.80
25638;BME280;13496;51.040;13.680;2023-05-19T05:03:27;100651.47;;;20.43;45.55
25638;BME280;13496;51.040;13.680;2023-05-19T05:08:28;100652.28;;;20.44;46.05
25638;BME280;13496;51.040;13.680;2023-05-19T05:13:31;100646.00;;;20.45;45.67
25638;BME280;13496;51.040;13.680;2023-05-19T05:18:34;100648.28;;;20.48;45.90
25638;BME280;13496;51.040;13.680;2023-05-19T05:23:36;100638.75;;;20.47;45.60
25638;BME280;13496;51.040;13.680;2023-05-19T05:28:40;100645.50;;;20.49;45.58
25638;BME280;13496;51.040;13.680;2023-05-19T05:33:42;100645.78;;;20.54;45.88
25638;BME280;13496;51.040;13.680;2023-05-19T05:38:44;100654.53;;;20.55;45.43
25638;BME280;13496;51.040;13.680;2023-05-19T05:43:46;100653.31;;;20.58;45.83
25638;BME280;13496;51.040;13.680;2023-05-19T05:48:48;100654.16;;;20.58;45.76
25638;BME280;13496;51.040;13.680;2023-05-19T05:53:53;100652.63;;;20.64;45.70
25638;BME280;13496;51.040;13.680;2023-05-19T05:58:56;100657.06;;;20.63;45.20
25638;BME280;13496;51.040;13.680;2023-05-19T06:03:59;100665.09;;;20.70;45.31
25638;BME280;13496;51.040;13.680;2023-05-19T06:09:01;100665.25;;;20.68;45.50
25638;BME280;13496;51.040;13.680;2023-05-19T06:14:04;100663.97;;;20.64;45.42
25638;BME280;13496;51.040;13.680;2023-05-19T06:19:27;100661.00;;;20.67;45.22
25638;BME280;13496;51.040;13.680;2023-05-19T06:24:28;100662.56;;;20.76;44.94
25638;BME280;13496;51.040;13.680;2023-05-19T06:29:30;100653.09;;;20.82;45.10
25638;BME280;13496;51.040;13.680;2023-05-19T06:34:36;100654.38;;;20.86;44.81
25638;BME280;13496;51.040;13.680;2023-05-19T06:39:40;100656.66;;;20.89;45.19
25638;BME280;13496;51.040;13.680;2023-05-19T06:44:42;100655.53;;;20.84;45.43
25638;BME280;13496;51.040;13.680;2023-05-19T06:49:46;100644.47;;;20.88;45.57
25638;BME280;13496;51.040;13.680;2023-05-19T06:54:57;100649.81;;;20.95;45.02
25638;BME280;13496;51.040;13.680;2023-05-19T06:59:58;100653.75;;;20.99;45.54
25638;BME280;13496;51.040;13.680;2023-05-19T07:05:01;100646.00;;;20.97;45.27
25638;BME280;13496;51.040;13.680;2023-05-19T07:10:04;100636.09;;;20.99;45.41
25638;BME280;13496;51.040;13.680;2023-05-19T07:15:07;100631.63;;;21.00;45.41
25638;BME280;13496;51.040;13.680;2023-05-19T07:20:10;100641.66;;;21.05;45.56
25638;BME280;13496;51.040;13.680;2023-05-19T07:25:12;100630.63;;;21.16;45.26
25638;BME280;13496;51.040;13.680;2023-05-19T07:30:15;100628.81;;;21.16;45.24
25638;BME280;13496;51.040;13.680;2023-05-19T07:35:17;100630.72;;;21.22;44.99
25638;BME280;13496;51.040;13.680;2023-05-19T07:40:18;100630.25;;;21.19;45.20
25638;BME280;13496;51.040;13.680;2023-05-19T07:45:20;100627.06;;;21.23;45.21
25638;BME280;13496;51.040;13.680;2023-05-19T07:50:22;100618.53;;;21.21;45.41
25638;BME280;13496;51.040;13.680;2023-05-19T07:55:24;100616.50;;;21.23;44.82
25638;BME280;13496;51.040;13.680;2023-05-19T08:00:26;100624.06;;;21.26;45.16
25638;BME280;13496;51.040;13.680;2023-05-19T08:05:28;100619.44;;;21.29;44.48
25638;BME280;13496;51.040;13.680;2023-05-19T08:10:30;100616.50;;;21.38;44.72
25638;BME280;13496;51.040;13.680;2023-05-19T08:15:32;100615.91;;;21.36;44.99
25638;BME280;13496;51.040;13.680;2023-05-19T08:20:33;100613.97;;;21.45;44.17
25638;BME280;13496;51.040;13.680;2023-05-19T08:25:35;100612.94;;;21.46;44.12
25638;BME280;13496;51.040;13.680;2023-05-19T08:30:37;100620.94;;;21.53;44.55
25638;BME280;13496;51.040;13.680;2023-05-19T08:35:39;100602.63;;;21.66;44.29
25638;BME280;13496;51.040;13.680;2023-05-19T08:40:41;100594.75;;;21.72;43.83
25638;BME280;13496;51.040;13.680;2023-05-19T08:45:44;100595.75;;;21.71;43.90
25638;BME280;13496;51.040;13.680;2023-05-19T08:56:10;100586.06;;;21.79;43.47
25638;BME280;13496;51.040;13.680;2023-05-19T09:01:13;100592.47;;;21.91;43.89
25638;BME280;13496;51.040;13.680;2023-05-19T09:06:17;100577.34;;;21.99;43.68
25638;BME280;13496;51.040;13.680;2023-05-19T09:11:19;100577.13;;;22.01;43.27
25638;BME280;13496;51.040;13.680;2023-05-19T09:16:23;100583.28;;;22.08;43.08
25638;BME280;13496;51.040;13.680;2023-05-19T09:21:31;100568.06;;;22.10;43.39
25638;BME280;13496;51.040;13.680;2023-05-19T09:26:38;100570.31;;;22.13;42.74
25638;BME280;13496;51.040;13.680;2023-05-19T09:31:54;100582.28;;;22.09;43.36
25638;BME280;13496;51.040;13.680;2023-05-19T09:36:56;100573.09;;;22.27;42.99
25638;BME280;13496;51.040;13.680;2023-05-19T09:42:03;100576.31;;;22.22;43.93
25638;BME280;13496;51.040;13.680;2023-05-19T09:47:08;100565.38;;;22.25;42.61
25638;BME280;13496;51.040;13.680;2023-05-19T09:52:10;100556.91;;;22.36;42.46
25638;BME280;13496;51.040;13.680;2023-05-19T09:57:16;100551.03;;;22.41;42.85
25638;BME280;13496;51.040;13.680;2023-05-19T10:02:18;100538.88;;;22.53;42.76
25638;BME280;13496;51.040;13.680;2023-05-19T10:07:22;100545.19;;;22.52;42.59
25638;BME280;13496;51.040;13.680;2023-05-19T10:12:25;100539.06;;;22.45;42.81
25638;BME280;13496;51.040;13.680;2023-05-19T10:17:27;100545.38;;;22.44;42.30
25638;BME280;13496;51.040;13.680;2023-05-19T10:22:29;100546.06;;;22.59;42.53
25638;BME280;13496;51.040;13.680;2023-05-19T10:27:33;100537.06;;;22.54;42.49
25638;BME280;13496;51.040;13.680;2023-05-19T10:32:37;100523.88;;;22.60;41.92
25638;BME280;13496;51.040;13.680;2023-05-19T10:38:04;100532.03;;;22.65;42.43
25638;BME280;13496;51.040;13.680;2023-05-19T10:48:16;100522.84;;;22.61;41.68
25638;BME280;13496;51.040;13.680;2023-05-19T10:53:19;100529.97;;;22.61;41.28
25638;BME280;13496;51.040;13.680;2023-05-19T11:03:44;100526.75;;;22.65;42.08
25638;BME280;13496;51.040;13.680;2023-05-19T11:13:59;100533.47;;;22.68;41.62
25638;BME280;13496;51.040;13.680;2023-05-19T11:19:01;100527.44;;;22.87;41.37
25638;BME280;13496;51.040;13.680;2023-05-19T11:24:07;100517.28;;;22.91;41.23
25638;BME280;13496;51.040;13.680;2023-05-19T11:29:09;100525.13;;;23.12;41.53
25638;BME280;13496;51.040;13.680;2023-05-19T11:34:12;100504.59;;;23.14;41.47
25638;BME280;13496;51.040;13.680;2023-05-19T11:39:14;100516.22;;;23.27;40.77
25638;BME280;13496;51.040;13.680;2023-05-19T11:44:17;100498.91;;;23.31;40.57
25638;BME280;13496;51.040;13.680;2023-05-19T11:49:18;100502.59;;;23.36;39.93
25638;BME280;13496;51.040;13.680;2023-05-19T11:54:20;100500.19;;;23.48;40.25
25638;BME280;13496;51.040;13.680;2023-05-19T11:59:32;100507.50;;;23.33;40.63
25638;BME280;13496;51.040;13.680;2023-05-19T12:04:34;100502.59;;;23.43;40.63
25638;BME280;13496;51.040;13.680;2023-05-19T12:09:35;100519.31;;;23.37;40.79
25638;BME280;13496;51.040;13.680;2023-05-19T12:14:37;100509.09;;;23.27;40.93
25638;BME280;13496;51.040;13.680;2023-05-19T12:19:41;100515.00;;;23.36;40.68
25638;BME280;13496;51.040;13.680;2023-05-19T12:24:44;100507.13;;;23.62;40.53
25638;BME280;13496;51.040;13.680;2023-05-19T12:29:51;100493.88;;;23.56;40.38
25638;BME280;13496;51.040;13.680;2023-05-19T12:34:55;100493.25;;;23.60;40.53
25638;BME280;13496;51.040;13.680;2023-05-19T12:39:56;100500.56;;;23.45;40.80
25638;BME280;13496;51.040;13.680;2023-05-19T12:45:00;100496.72;;;23.48;41.19
25638;BME280;13496;51.040;13.680;2023-05-19T12:50:03;100498.13;;;23.57;40.52
25638;BME280;13496;51.040;13.680;2023-05-19T12:55:08;100491.84;;;23.71;40.62
25638;BME280;13496;51.040;13.680;2023-05-19T13:00:15;100486.16;;;23.67;40.14
25638;BME280;13496;51.040;13.680;2023-05-19T13:05:18;100492.06;;;23.70;40.34
25638;BME280;13496;51.040;13.680;2023-05-19T13:10:19;100493.88;;;23.62;40.73
25638;BME280;13496;51.040;13.680;2023-05-19T13:15:22;100483.47;;;23.41;40.75
25638;BME280;13496;51.040;13.680;2023-05-19T13:20:46;100499.97;;;23.36;41.04
25638;BME280;13496;51.040;13.680;2023-05-19T13:25:49;100489.34;;;23.43;41.29
25638;BME280;13496;51.040;13.680;2023-05-19T13:30:51;100488.75;;;23.34;41.66
25638;BME280;13496;51.040;13.680;2023-05-19T13:35:53;100482.44;;;23.49;41.15
25638;BME280;13496;51.040;13.680;2023-05-19T13:40:55;100488.75;;;23.41;41.26
25638;BME280;13496;51.040;13.680;2023-05-19T13:45:57;100478.97;;;23.35;40.92
25638;BME280;13496;51.040;13.680;2023-05-19T13:50:58;100484.66;;;23.32;40.93
25638;BME280;13496;51.040;13.680;2023-05-19T13:56:01;100481.59;;;23.35;41.35
25638;BME280;13496;51.040;13.680;2023-05-19T14:01:03;100490.34;;;23.35;41.15
25638;BME280;13496;51.040;13.680;2023-05-19T14:06:05;100475.28;;;23.29;41.82
25638;BME280;13496;51.040;13.680;2023-05-19T14:11:06;100489.13;;;23.25;42.10
25638;BME280;13496;51.040;13.680;2023-05-19T14:16:08;100483.84;;;23.38;41.58
25638;BME280;13496;51.040;13.680;2023-05-19T14:21:10;100482.44;;;23.29;41.70
25638;BME280;13496;51.040;13.680;2023-05-19T14:26:11;100483.81;;;23.25;41.81
25638;BME280;13496;51.040;13.680;2023-05-19T14:31:13;100487.50;;;23.24;42.01
25638;BME280;13496;51.040;13.680;2023-05-19T14:36:15;100474.88;;;23.26;41.81
25638;BME280;13496;51.040;13.680;2023-05-19T14:41:17;100487.28;;;23.18;42.15
25638;BME280;13496;51.040;13.680;2023-05-19T14:46:19;100485.84;;;23.16;42.22
25638;BME280;13496;51.040;13.680;2023-05-19T14:51:20;100486.88;;;23.15;42.22
25638;BME280;13496;51.040;13.680;2023-05-19T14:56:22;100486.84;;;23.08;41.60
25638;BME280;13496;51.040;13.680;2023-05-19T15:01:24;100490.09;;;23.04;42.07
25638;BME280;13496;51.040;13.680;2023-05-19T15:06:26;100488.47;;;23.03;41.92
25638;BME280;13496;51.040;13.680;2023-05-19T15:11:28;100485.00;;;23.02;42.93
25638;BME280;13496;51.040;13.680;2023-05-19T15:16:29;100492.50;;;22.99;42.54
25638;BME280;13496;51.040;13.680;2023-05-19T15:21:31;100493.53;;;22.98;42.65
25638;BME280;13496;51.040;13.680;2023-05-19T15:26:33;100502.69;;;22.95;42.52
25638;BME280;13496;51.040;13.680;2023-05-19T15:31:34;100498.00;;;22.97;42.42
25638;BME280;13496;51.040;13.680;2023-05-19T15:36:36;100497.38;;;22.95;42.10
25638;BME280;13496;51.040;13.680;2023-05-19T15:41:38;100502.88;;;22.93;42.03
25638;BME280;13496;51.040;13.680;2023-05-19T15:46:39;100505.31;;;22.95;42.84
25638;BME280;13496;51.040;13.680;2023-05-19T15:51:41;100513.69;;;22.92;42.42
25638;BME280;13496;51.040;13.680;2023-05-19T15:56:43;100516.34;;;22.92;42.81
25638;BME280;13496;51.040;13.680;2023-05-19T16:01:45;100515.31;;;22.93;42.98
25638;BME280;13496;51.040;13.680;2023-05-19T16:06:46;100527.72;;;22.92;42.81
25638;BME280;13496;51.040;13.680;2023-05-19T16:11:48;100524.63;;;22.89;43.28
25638;BME280;13496;51.040;13.680;2023-05-19T16:16:50;100539.28;;;22.85;43.36
25638;BME280;13496;51.040;13.680;2023-05-19T16:21:51;100536.00;;;22.83;42.54
25638;BME280;13496;51.040;13.680;2023-05-19T16:26:53;100536.19;;;22.81;43.46
25638;BME280;13496;51.040;13.680;2023-05-19T16:31:55;100532.09;;;22.79;42.79
25638;BME280;13496;51.040;13.680;2023-05-19T16:36:56;100529.66;;;22.77;42.79
25638;BME280;13496;51.040;13.680;2023-05-19T16:41:58;100539.41;;;22.77;42.94
25638;BME280;13496;51.040;13.680;2023-05-19T16:47:00;100537.78;;;22.76;42.97
25638;BME280;13496;51.040;13.680;2023-05-19T16:52:02;100539.84;;;22.74;44.03
25638;BME280;13496;51.040;13.680;2023-05-19T16:57:04;100544.50;;;22.71;43.35
25638;BME280;13496;51.040;13.680;2023-05-19T17:02:06;100534.94;;;22.70;43.34
25638;BME280;13496;51.040;13.680;2023-05-19T17:07:07;100530.84;;;22.68;43.93
25638;BME280;13496;51.040;13.680;2023-05-19T17:12:10;100525.75;;;22.66;43.46
25638;BME280;13496;51.040;13.680;2023-05-19T17:17:11;100525.94;;;22.65;43.45
25638;BME280;13496;51.040;13.680;2023-05-19T17:22:13;100527.97;;;22.63;43.66
25638;BME280;13496;51.040;13.680;2023-05-19T17:27:15;100531.81;;;22.60;43.69
25638;BME280;13496;51.040;13.680;2023-05-19T17:32:17;100540.78;;;22.59;43.65
25638;BME280;13496;51.040;13.680;2023-05-19T17:37:18;100541.16;;;22.56;44.02
25638;BME280;13496;51.040;13.680;2023-05-19T17:42:23;100534.25;;;22.55;43.38
25638;BME280;13496;51.040;13.680;2023-05-19T17:47:25;100542.34;;;22.54;43.94
25638;BME280;13496;51.040;13.680;2023-05-19T17:52:27;100546.22;;;22.51;44.51
25638;BME280;13496;51.040;13.680;2023-05-19T17:57:30;100535.22;;;22.48;44.61
25638;BME280;13496;51.040;13.680;2023-05-19T18:02:33;100530.91;;;22.46;45.07
25638;BME280;13496;51.040;13.680;2023-05-19T18:07:37;100539.25;;;22.43;45.20
25638;BME280;13496;51.040;13.680;2023-05-19T18:12:39;100534.16;;;22.42;44.82
25638;BME280;13496;51.040;13.680;2023-05-19T18:17:41;100533.53;;;22.40;44.98
25638;BME280;13496;51.040;13.680;2023-05-19T18:22:43;100531.28;;;22.37;45.20
25638;BME280;13496;51.040;13.680;2023-05-19T18:27:44;100547.16;;;22.37;44.99
25638;BME280;13496;51.040;13.680;2023-05-19T18:32:47;100547.31;;;22.35;45.28
25638;BME280;13496;51.040;13.680;2023-05-19T18:37:49;100538.78;;;22.33;44.71
25638;BME280;13496;51.040;13.680;2023-05-19T18:42:51;100537.34;;;22.31;45.29
25638;BME280;13496;51.040;13.680;2023-05-19T18:47:52;100543.63;;;22.30;45.26
25638;BME280;13496;51.040;13.680;2023-05-19T18:52:54;100544.84;;;22.27;45.71
25638;BME280;13496;51.040;13.680;2023-05-19T18:57:56;100551.94;;;22.27;45.66
25638;BME280;13496;51.040;13.680;2023-05-19T19:02:57;100555.78;;;22.24;45.80
25638;BME280;13496;51.040;13.680;2023-05-19T19:07:59;100550.69;;;22.22;46.08
25638;BME280;13496;51.040;13.680;2023-05-19T19:13:01;100554.38;;;22.21;45.62
25638;BME280;13496;51.040;13.680;2023-05-19T19:18:03;100554.53;;;22.20;45.40
25638;BME280;13496;51.040;13.680;2023-05-19T19:23:04;100556.56;;;22.18;45.46
25638;BME280;13496;51.040;13.680;2023-05-19T19:28:07;100559.38;;;22.16;45.74
25638;BME280;13496;51.040;13.680;2023-05-19T19:33:08;100560.41;;;22.15;45.70
25638;BME280;13496;51.040;13.680;2023-05-19T19:38:10;100558.94;;;22.13;45.55
25638;BME280;13496;51.040;13.680;2023-05-19T19:43:12;100558.09;;;22.12;45.65
25638;BME280;13496;51.040;13.680;2023-05-19T19:48:13;100561.94;;;22.10;46.01
25638;BME280;13496;51.040;13.680;2023-05-19T19:53:15;100547.91;;;22.09;45.62
25638;BME280;13496;51.040;13.680;2023-05-19T19:58:17;100556.84;;;22.08;45.80
25638;BME280;13496;51.040;13.680;2023-05-19T20:03:19;100548.28;;;22.06;45.87
25638;BME280;13496;51.040;13.680;2023-05-19T20:08:22;100552.97;;;22.04;46.08
25638;BME280;13496;51.040;13.680;2023-05-19T20:13:24;100552.16;;;22.04;45.74
25638;BME280;13496;51.040;13.680;2023-05-19T20:18:25;100551.50;;;22.02;45.90
25638;BME280;13496;51.040;13.680;2023-05-19T20:23:30;100566.56;;;22.01;45.39
25638;BME280;13496;51.040;13.680;2023-05-19T20:28:31;100559.66;;;22.00;45.76
25638;BME280;13496;51.040;13.680;2023-05-19T20:33:33;100561.66;;;21.98;45.24
25638;BME280;13496;51.040;13.680;2023-05-19T20:38:35;100565.50;;;21.95;45.89
25638;BME280;13496;51.040;13.680;2023-05-19T20:43:37;100562.03;;;21.95;45.20
25638;BME280;13496;51.040;13.680;2023-05-19T20:48:39;100561.22;;;21.94;45.43
25638;BME280;13496;51.040;13.680;2023-05-19T20:53:40;100569.34;;;21.93;45.71
25638;BME280;13496;51.040;13.680;2023-05-19T20:58:42;100558.94;;;21.91;45.31
25638;BME280;13496;51.040;13.680;2023-05-19T21:03:44;100553.84;;;21.90;45.32
25638;BME280;13496;51.040;13.680;2023-05-19T21:08:46;100546.13;;;21.88;45.53
25638;BME280;13496;51.040;13.680;2023-05-19T21:13:47;100553.25;;;21.88;45.54
25638;BME280;13496;51.040;13.680;2023-05-19T21:18:50;100554.22;;;21.87;45.90
25638;BME280;13496;51.040;13.680;2023-05-19T21:23:52;100555.25;;;21.86;45.52
25638;BME280;13496;51.040;13.680;2023-05-19T21:28:53;100557.25;;;21.84;45.66
25638;BME280;13496;51.040;13.680;2023-05-19T21:33:55;100561.94;;;21.82;45.66
25638;BME280;13496;51.040;13.680;2023-05-19T21:38:57;100561.94;;;21.82;45.53
25638;BME280;13496;51.040;13.680;2023-05-19T21:43:58;100565.59;;;21.81;46.17
25638;BME280;13496;51.040;13.680;2023-05-19T21:49:01;100564.94;;;21.79;45.80
25638;BME280;13496;51.040;13.680;2023-05-19T21:54:03;100559.84;;;21.77;45.47
25638;BME280;13496;51.040;13.680;2023-05-19T21:59:05;100553.94;;;21.75;45.61
25638;BME280;13496;51.040;13.680;2023-05-19T22:04:07;100554.13;;;21.73;45.64
25638;BME280;13496;51.040;13.680;2023-05-19T22:09:09;100552.47;;;21.72;46.25
25638;BME280;13496;51.040;13.680;2023-05-19T22:14:15;100552.69;;;21.71;46.16
25638;BME280;13496;51.040;13.680;2023-05-19T22:19:17;100557.16;;;21.70;46.39
25638;BME280;13496;51.040;13.680;2023-05-19T22:24:18;100551.22;;;21.68;46.11
25638;BME280;13496;51.040;13.680;2023-05-19T22:29:20;100559.34;;;21.67;46.06
25638;BME280;13496;51.040;13.680;2023-05-19T22:34:22;100550.63;;;21.66;46.32
25638;BME280;13496;51.040;13.680;2023-05-19T22:39:23;100546.06;;;21.60;45.88
25638;BME280;13496;51.040;13.680;2023-05-19T22:44:25;100548.72;;;21.60;46.36
25638;BME280;13496;51.040;13.680;2023-05-19T22:49:27;100541.81;;;21.59;46.05
25638;BME280;13496;51.040;13.680;2023-05-19T22:54:30;100547.09;;;21.59;46.19
25638;BME280;13496;51.040;13.680;2023-05-19T22:59:32;100543.19;;;21.55;46.34
25638;BME280;13496;51.040;13.680;2023-05-19T23:04:34;100535.44;;;21.54;46.04
25638;BME280;13496;51.040;13.680;2023-05-19T23:09:36;100530.97;;;21.54;46.35
25638;BME280;13496;51.040;13.680;2023-05-19T23:14:37;100536.44;;;21.53;46.14
25638;BME280;13496;51.040;13.680;2023-05-19T23:19:39;100536.44;;;21.53;46.50
25638;BME280;13496;51.040;13.680;2023-05-19T23:24:41;100539.28;;;21.51;46.53
25638;BME280;13496;51.040;13.680;2023-05-19T23:29:49;100534.38;;;21.48;46.30
25638;BME280;13496;51.040;13.680;2023-05-19T23:34:51;100539.66;;;21.48;45.89
25638;BME280;13496;51.040;13.680;2023-05-19T23:39:53;100540.47;;;21.48;45.99
25638;BME280;13496;51.040;13.680;2023-05-19T23:44:55;100543.31;;;21.47;45.95
25638;BME280;13496;51.040;13.680;2023-05-19T23:49:56;100537.19;;;21.46;45.78
25638;BME280;13496;51.040;13.680;2023-05-19T23:54:58;100538.41;;;21.44;46.41
